sensor_id;sensor_type;location;lat;lon;timestamp;P1;durP1;ratioP1;P2;durP2;ratioP2
50291;SDS011;36190;54.980;73.388;2023-12-14T00:01:29;0.20;;;0.20;;
50291;SDS011;36190;54.980;73.388;2023-12-14T00:03:56;0.10;;;0.10;;
50291;SDS011;36190;54.980;73.388;2023-12-14T00:06:24;0.20;;;0.20;;
50291;SDS011;36190;54.980;73.388;2023-12-14T00:08:54;0.20;;;0.20;;
50291;SDS011;36190;54.980;73.388;2023-12-14T00:11:21;0.20;;;0.20;;
50291;SDS011;36190;54.980;73.388;2023-12-14T00:13:49;0.20;;;0.20;;
50291;SDS011;36190;54.980;73.388;2023-12-14T00:16:16;0.10;;;0.10;;
50291;SDS011;36190;54.980;73.388;2023-12-14T00:18:44;0.10;;;0.10;;
50291;SDS011;36190;54.980;73.388;2023-12-14T00:21:12;0.10;;;0.10;;
50291;SDS011;36190;54.980;73.388;2023-12-14T00:23:40;0.17;;;0.17;;
50291;SDS011;36190;54.980;73.388;2023-12-14T00:26:09;0.17;;;0.17;;
50291;SDS011;36190;54.980;73.388;2023-12-14T00:28:36;0.20;;;0.20;;
50291;SDS011;36190;54.980;73.388;2023-12-14T00:31:04;0.13;;;0.13;;
50291;SDS011;36190;54.980;73.388;2023-12-14T00:33:32;0.10;;;0.10;;
50291;SDS011;36190;54.980;73.388;2023-12-14T00:36:00;0.20;;;0.20;;
50291;SDS011;36190;54.980;73.388;2023-12-14T00:38:27;0.10;;;0.10;;
50291;SDS011;36190;54.980;73.388;2023-12-14T00:40:55;0.20;;;0.20;;
50291;SDS011;36190;54.980;73.388;2023-12-14T00:43:24;0.10;;;0.10;;
50291;SDS011;36190;54.980;73.388;2023-12-14T00:45:52;0.20;;;0.20;;
50291;SDS011;36190;54.980;73.388;2023-12-14T00:48:19;0.10;;;0.10;;
50291;SDS011;36190;54.980;73.388;2023-12-14T00:50:47;0.13;;;0.13;;
50291;SDS011;36190;54.980;73.388;2023-12-14T00:53:15;0.30;;;0.30;;
50291;SDS011;36190;54.980;73.388;2023-12-14T00:55:42;0.10;;;0.10;;
50291;SDS011;36190;54.980;73.388;2023-12-14T00:58:11;0.20;;;0.20;;
50291;SDS011;36190;54.980;73.388;2023-12-14T01:00:40;0.10;;;0.10;;
50291;SDS011;36190;54.980;73.388;2023-12-14T01:03:08;0.10;;;0.10;;
50291;SDS011;36190;54.980;73.388;2023-12-14T01:05:36;0.20;;;0.20;;
50291;SDS011;36190;54.980;73.388;2023-12-14T01:08:04;0.20;;;0.20;;
50291;SDS011;36190;54.980;73.388;2023-12-14T01:10:32;0.10;;;0.10;;
50291;SDS011;36190;54.980;73.388;2023-12-14T01:12:59;0.20;;;0.20;;
50291;SDS011;36190;54.980;73.388;2023-12-14T01:15:27;0.20;;;0.20;;
50291;SDS011;36190;54.980;73.388;2023-12-14T01:17:56;0.20;;;0.20;;
50291;SDS011;36190;54.980;73.388;2023-12-14T01:20:24;0.20;;;0.20;;
50291;SDS011;36190;54.980;73.388;2023-12-14T01:22:51;0.20;;;0.20;;
50291;SDS011;36190;54.980;73.388;2023-12-14T01:25:19;0.20;;;0.20;;
50291;SDS011;36190;54.980;73.388;2023-12-14T01:27:47;0.20;;;0.20;;
50291;SDS011;36190;54.980;73.388;2023-12-14T01:30:14;0.20;;;0.20;;
50291;SDS011;36190;54.980;73.388;2023-12-14T01:32:42;0.20;;;0.20;;
50291;SDS011;36190;54.980;73.388;2023-12-14T01:35:12;0.20;;;0.20;;
50291;SDS011;36190;54.980;73.388;2023-12-14T01:37:40;0.20;;;0.20;;
50291;SDS011;36190;54.980;73.388;2023-12-14T01:40:08;0.20;;;0.20;;
50291;SDS011;36190;54.980;73.388;2023-12-14T01:42:36;0.20;;;0.20;;
50291;SDS011;36190;54.980;73.388;2023-12-14T01:45:04;0.20;;;0.20;;
50291;SDS011;36190;54.980;73.388;2023-12-14T01:47:32;0.20;;;0.20;;
50291;SDS011;36190;54.980;73.388;2023-12-14T01:50:00;0.20;;;0.20;;
50291;SDS011;36190;54.980;73.388;2023-12-14T01:52:29;0.20;;;0.20;;
50291;SDS011;36190;54.980;73.388;2023-12-14T01:54:57;0.30;;;0.30;;
50291;SDS011;36190;54.980;73.388;2023-12-14T01:57:25;0.27;;;0.27;;
50291;SDS011;36190;54.980;73.388;2023-12-14T01:59:52;0.20;;;0.20;;
50291;SDS011;36190;54.980;73.388;2023-12-14T02:02:20;0.33;;;0.33;;
50291;SDS011;36190;54.980;73.388;2023-12-14T02:04:48;0.20;;;0.20;;
50291;SDS011;36190;54.980;73.388;2023-12-14T02:07:16;0.40;;;0.20;;
50291;SDS011;36190;54.980;73.388;2023-12-14T02:09:45;0.20;;;0.20;;
50291;SDS011;36190;54.980;73.388;2023-12-14T02:12:15;0.20;;;0.20;;
50291;SDS011;36190;54.980;73.388;2023-12-14T02:14:43;0.10;;;0.10;;
50291;SDS011;36190;54.980;73.388;2023-12-14T02:17:11;0.30;;;0.30;;
50291;SDS011;36190;54.980;73.388;2023-12-14T02:19:39;0.20;;;0.20;;
50291;SDS011;36190;54.980;73.388;2023-12-14T02:22:06;0.20;;;0.20;;
50291;SDS011;36190;54.980;73.388;2023-12-14T02:24:36;0.30;;;0.30;;
50291;SDS011;36190;54.980;73.388;2023-12-14T02:27:03;0.10;;;0.10;;
50291;SDS011;36190;54.980;73.388;2023-12-14T02:29:31;0.20;;;0.20;;
50291;SDS011;36190;54.980;73.388;2023-12-14T02:31:59;0.20;;;0.20;;
50291;SDS011;36190;54.980;73.388;2023-12-14T02:34:27;0.20;;;0.20;;
50291;SDS011;36190;54.980;73.388;2023-12-14T02:36:55;0.20;;;0.20;;
50291;SDS011;36190;54.980;73.388;2023-12-14T02:39:22;0.20;;;0.20;;
50291;SDS011;36190;54.980;73.388;2023-12-14T02:41:51;0.20;;;0.20;;
50291;SDS011;36190;54.980;73.388;2023-12-14T02:44:19;0.20;;;0.20;;
50291;SDS011;36190;54.980;73.388;2023-12-14T02:46:47;0.20;;;0.20;;
50291;SDS011;36190;54.980;73.388;2023-12-14T02:49:14;0.20;;;0.20;;
50291;SDS011;36190;54.980;73.388;2023-12-14T02:51:42;0.30;;;0.30;;
50291;SDS011;36190;54.980;73.388;2023-12-14T02:54:10;0.20;;;0.20;;
50291;SDS011;36190;54.980;73.388;2023-12-14T02:56:37;0.20;;;0.20;;
50291;SDS011;36190;54.980;73.388;2023-12-14T02:59:06;0.30;;;0.30;;
50291;SDS011;36190;54.980;73.388;2023-12-14T03:01:34;0.20;;;0.20;;
50291;SDS011;36190;54.980;73.388;2023-12-14T03:04:02;0.20;;;0.20;;
50291;SDS011;36190;54.980;73.388;2023-12-14T03:06:29;0.20;;;0.20;;
50291;SDS011;36190;54.980;73.388;2023-12-14T03:08:57;0.20;;;0.20;;
50291;SDS011;36190;54.980;73.388;2023-12-14T03:11:25;0.33;;;0.33;;
50291;SDS011;36190;54.980;73.388;2023-12-14T03:13:52;0.13;;;0.13;;
50291;SDS011;36190;54.980;73.388;2023-12-14T03:16:22;0.20;;;0.20;;
50291;SDS011;36190;54.980;73.388;2023-12-14T03:18:49;0.20;;;0.20;;
50291;SDS011;36190;54.980;73.388;2023-12-14T03:21:18;0.10;;;0.10;;
50291;SDS011;36190;54.980;73.388;2023-12-14T03:23:46;0.20;;;0.20;;
50291;SDS011;36190;54.980;73.388;2023-12-14T03:26:14;0.10;;;0.10;;
50291;SDS011;36190;54.980;73.388;2023-12-14T03:28:41;0.20;;;0.20;;
50291;SDS011;36190;54.980;73.388;2023-12-14T03:31:09;0.20;;;0.20;;
50291;SDS011;36190;54.980;73.388;2023-12-14T03:33:39;0.30;;;0.30;;
50291;SDS011;36190;54.980;73.388;2023-12-14T03:36:07;0.20;;;0.20;;
50291;SDS011;36190;54.980;73.388;2023-12-14T03:38:35;0.13;;;0.13;;
50291;SDS011;36190;54.980;73.388;2023-12-14T03:41:03;0.20;;;0.20;;
50291;SDS011;36190;54.980;73.388;2023-12-14T03:43:31;0.20;;;0.20;;
50291;SDS011;36190;54.980;73.388;2023-12-14T03:45:58;0.20;;;0.20;;
50291;SDS011;36190;54.980;73.388;2023-12-14T03:48:26;0.10;;;0.10;;
50291;SDS011;36190;54.980;73.388;2023-12-14T03:50:55;0.10;;;0.10;;
50291;SDS011;36190;54.980;73.388;2023-12-14T03:53:23;0.20;;;0.20;;
50291;SDS011;36190;54.980;73.388;2023-12-14T03:55:50;0.30;;;0.30;;
50291;SDS011;36190;54.980;73.388;2023-12-14T03:58:18;0.30;;;0.30;;
50291;SDS011;36190;54.980;73.388;2023-12-14T04:00:46;0.40;;;0.40;;
50291;SDS011;36190;54.980;73.388;2023-12-14T04:03:13;0.30;;;0.30;;
50291;SDS011;36190;54.980;73.388;2023-12-14T04:05:41;0.33;;;0.33;;
50291;SDS011;36190;54.980;73.388;2023-12-14T04:08:11;0.40;;;0.40;;
50291;SDS011;36190;54.980;73.388;2023-12-14T04:10:38;0.40;;;0.40;;
50291;SDS011;36190;54.980;73.388;2023-12-14T04:13:06;0.47;;;0.47;;
50291;SDS011;36190;54.980;73.388;2023-12-14T04:15:34;0.30;;;0.30;;
50291;SDS011;36190;54.980;73.388;2023-12-14T04:18:02;0.40;;;0.40;;
50291;SDS011;36190;54.980;73.388;2023-12-14T04:20:30;0.40;;;0.40;;
50291;SDS011;36190;54.980;73.388;2023-12-14T04:22:57;0.30;;;0.30;;
50291;SDS011;36190;54.980;73.388;2023-12-14T04:25:26;0.27;;;0.27;;
50291;SDS011;36190;54.980;73.388;2023-12-14T04:27:54;0.40;;;0.40;;
50291;SDS011;36190;54.980;73.388;2023-12-14T04:30:21;0.30;;;0.30;;
50291;SDS011;36190;54.980;73.388;2023-12-14T04:32:49;0.30;;;0.30;;
50291;SDS011;36190;54.980;73.388;2023-12-14T04:35:17;0.40;;;0.40;;
50291;SDS011;36190;54.980;73.388;2023-12-14T04:37:47;0.33;;;0.33;;
50291;SDS011;36190;54.980;73.388;2023-12-14T04:40:15;0.20;;;0.20;;
50291;SDS011;36190;54.980;73.388;2023-12-14T04:42:44;0.20;;;0.20;;
50291;SDS011;36190;54.980;73.388;2023-12-14T04:45:12;0.30;;;0.30;;
50291;SDS011;36190;54.980;73.388;2023-12-14T04:47:40;0.40;;;0.40;;
50291;SDS011;36190;54.980;73.388;2023-12-14T04:50:08;0.30;;;0.30;;
50291;SDS011;36190;54.980;73.388;2023-12-14T04:52:37;0.20;;;0.20;;
50291;SDS011;36190;54.980;73.388;2023-12-14T04:55:05;0.20;;;0.20;;
50291;SDS011;36190;54.980;73.388;2023-12-14T04:57:33;0.27;;;0.27;;
50291;SDS011;36190;54.980;73.388;2023-12-14T05:00:03;0.20;;;0.20;;
50291;SDS011;36190;54.980;73.388;2023-12-14T05:02:33;0.33;;;0.33;;
50291;SDS011;36190;54.980;73.388;2023-12-14T05:05:00;0.20;;;0.20;;
50291;SDS011;36190;54.980;73.388;2023-12-14T05:07:28;0.20;;;0.20;;
50291;SDS011;36190;54.980;73.388;2023-12-14T05:09:56;0.23;;;0.23;;
50291;SDS011;36190;54.980;73.388;2023-12-14T05:12:24;0.37;;;0.37;;
50291;SDS011;36190;54.980;73.388;2023-12-14T05:14:52;0.20;;;0.20;;
50291;SDS011;36190;54.980;73.388;2023-12-14T05:17:21;0.23;;;0.23;;
50291;SDS011;36190;54.980;73.388;2023-12-14T05:19:48;0.20;;;0.20;;
50291;SDS011;36190;54.980;73.388;2023-12-14T05:22:15;0.30;;;0.30;;
50291;SDS011;36190;54.980;73.388;2023-12-14T05:24:45;0.30;;;0.30;;
50291;SDS011;36190;54.980;73.388;2023-12-14T05:27:13;0.30;;;0.30;;
50291;SDS011;36190;54.980;73.388;2023-12-14T05:29:41;0.27;;;0.27;;
50291;SDS011;36190;54.980;73.388;2023-12-14T05:32:08;0.20;;;0.20;;
50291;SDS011;36190;54.980;73.388;2023-12-14T05:34:37;0.40;;;0.40;;
50291;SDS011;36190;54.980;73.388;2023-12-14T05:37:05;0.30;;;0.30;;
50291;SDS011;36190;54.980;73.388;2023-12-14T05:39:33;0.30;;;0.30;;
50291;SDS011;36190;54.980;73.388;2023-12-14T05:42:00;0.30;;;0.30;;
50291;SDS011;36190;54.980;73.388;2023-12-14T05:44:28;0.40;;;0.40;;
50291;SDS011;36190;54.980;73.388;2023-12-14T05:46:56;0.40;;;0.40;;
50291;SDS011;36190;54.980;73.388;2023-12-14T05:49:23;0.30;;;0.30;;
50291;SDS011;36190;54.980;73.388;2023-12-14T05:51:53;0.20;;;0.20;;
50291;SDS011;36190;54.980;73.388;2023-12-14T05:54:20;0.20;;;0.20;;
50291;SDS011;36190;54.980;73.388;2023-12-14T05:56:48;0.30;;;0.30;;
50291;SDS011;36190;54.980;73.388;2023-12-14T05:59:15;0.20;;;0.20;;
50291;SDS011;36190;54.980;73.388;2023-12-14T06:01:43;0.30;;;0.30;;
50291;SDS011;36190;54.980;73.388;2023-12-14T06:04:11;0.27;;;0.27;;
50291;SDS011;36190;54.980;73.388;2023-12-14T06:06:39;0.30;;;0.30;;
50291;SDS011;36190;54.980;73.388;2023-12-14T06:09:08;0.30;;;0.30;;
50291;SDS011;36190;54.980;73.388;2023-12-14T06:11:35;0.20;;;0.20;;
50291;SDS011;36190;54.980;73.388;2023-12-14T06:14:03;0.30;;;0.30;;
50291;SDS011;36190;54.980;73.388;2023-12-14T06:16:31;0.30;;;0.30;;
50291;SDS011;36190;54.980;73.388;2023-12-14T06:18:58;0.30;;;0.30;;
50291;SDS011;36190;54.980;73.388;2023-12-14T06:21:26;0.30;;;0.30;;
50291;SDS011;36190;54.980;73.388;2023-12-14T06:23:54;0.33;;;0.33;;
50291;SDS011;36190;54.980;73.388;2023-12-14T06:26:23;0.20;;;0.20;;
50291;SDS011;36190;54.980;73.388;2023-12-14T06:28:51;0.20;;;0.20;;
50291;SDS011;36190;54.980;73.388;2023-12-14T06:31:19;0.20;;;0.20;;
50291;SDS011;36190;54.980;73.388;2023-12-14T06:33:47;0.30;;;0.30;;
50291;SDS011;36190;54.980;73.388;2023-12-14T06:36:15;0.23;;;0.23;;
50291;SDS011;36190;54.980;73.388;2023-12-14T06:38:44;0.20;;;0.20;;
50291;SDS011;36190;54.980;73.388;2023-12-14T06:41:18;0.20;;;0.20;;
50291;SDS011;36190;54.980;73.388;2023-12-14T06:43:47;0.13;;;0.13;;
50291;SDS011;36190;54.980;73.388;2023-12-14T06:46:15;0.20;;;0.20;;
50291;SDS011;36190;54.980;73.388;2023-12-14T06:48:43;0.20;;;0.20;;
50291;SDS011;36190;54.980;73.388;2023-12-14T06:51:11;0.20;;;0.20;;
50291;SDS011;36190;54.980;73.388;2023-12-14T06:53:39;0.20;;;0.20;;
50291;SDS011;36190;54.980;73.388;2023-12-14T06:56:08;0.20;;;0.20;;
50291;SDS011;36190;54.980;73.388;2023-12-14T06:58:36;0.20;;;0.20;;
50291;SDS011;36190;54.980;73.388;2023-12-14T07:01:06;0.20;;;0.20;;
50291;SDS011;36190;54.980;73.388;2023-12-14T07:03:33;0.20;;;0.20;;
50291;SDS011;36190;54.980;73.388;2023-12-14T07:06:01;0.13;;;0.13;;
50291;SDS011;36190;54.980;73.388;2023-12-14T07:08:29;0.30;;;0.30;;
50291;SDS011;36190;54.980;73.388;2023-12-14T07:10:57;0.20;;;0.20;;
50291;SDS011;36190;54.980;73.388;2023-12-14T07:13:24;0.10;;;0.10;;
50291;SDS011;36190;54.980;73.388;2023-12-14T07:15:52;0.27;;;0.27;;
50291;SDS011;36190;54.980;73.388;2023-12-14T07:18:21;0.30;;;0.30;;
50291;SDS011;36190;54.980;73.388;2023-12-14T07:20:49;0.17;;;0.17;;
50291;SDS011;36190;54.980;73.388;2023-12-14T07:23:16;0.20;;;0.20;;
50291;SDS011;36190;54.980;73.388;2023-12-14T07:25:44;0.20;;;0.20;;
50291;SDS011;36190;54.980;73.388;2023-12-14T07:28:11;0.30;;;0.30;;
50291;SDS011;36190;54.980;73.388;2023-12-14T07:30:39;0.20;;;0.20;;
50291;SDS011;36190;54.980;73.388;2023-12-14T07:33:07;0.20;;;0.20;;
50291;SDS011;36190;54.980;73.388;2023-12-14T07:35:36;0.30;;;0.30;;
50291;SDS011;36190;54.980;73.388;2023-12-14T07:38:04;0.27;;;0.27;;
50291;SDS011;36190;54.980;73.388;2023-12-14T07:40:31;0.23;;;0.23;;
50291;SDS011;36190;54.980;73.388;2023-12-14T07:42:59;0.23;;;0.23;;
50291;SDS011;36190;54.980;73.388;2023-12-14T07:45:27;0.20;;;0.20;;
50291;SDS011;36190;54.980;73.388;2023-12-14T07:47:54;0.20;;;0.20;;
50291;SDS011;36190;54.980;73.388;2023-12-14T07:50:22;0.23;;;0.20;;
50291;SDS011;36190;54.980;73.388;2023-12-14T07:52:51;0.20;;;0.20;;
50291;SDS011;36190;54.980;73.388;2023-12-14T07:55:22;0.20;;;0.20;;
50291;SDS011;36190;54.980;73.388;2023-12-14T07:57:50;0.20;;;0.20;;
50291;SDS011;36190;54.980;73.388;2023-12-14T08:00:17;0.20;;;0.20;;
50291;SDS011;36190;54.980;73.388;2023-12-14T08:02:45;0.10;;;0.10;;
50291;SDS011;36190;54.980;73.388;2023-12-14T08:05:13;0.20;;;0.20;;
50291;SDS011;36190;54.980;73.388;2023-12-14T08:07:41;0.20;;;0.20;;
50291;SDS011;36190;54.980;73.388;2023-12-14T08:10:10;0.10;;;0.10;;
50291;SDS011;36190;54.980;73.388;2023-12-14T08:12:38;0.17;;;0.17;;
50291;SDS011;36190;54.980;73.388;2023-12-14T08:15:05;0.20;;;0.20;;
50291;SDS011;36190;54.980;73.388;2023-12-14T08:17:33;0.20;;;0.20;;
50291;SDS011;36190;54.980;73.388;2023-12-14T08:20:01;0.10;;;0.10;;
50291;SDS011;36190;54.980;73.388;2023-12-14T08:22:29;0.20;;;0.20;;
50291;SDS011;36190;54.980;73.388;2023-12-14T08:24:57;0.20;;;0.20;;
50291;SDS011;36190;54.980;73.388;2023-12-14T08:27:26;0.20;;;0.20;;
50291;SDS011;36190;54.980;73.388;2023-12-14T08:29:54;0.20;;;0.20;;
50291;SDS011;36190;54.980;73.388;2023-12-14T08:32:22;0.20;;;0.20;;
50291;SDS011;36190;54.980;73.388;2023-12-14T08:34:49;0.27;;;0.27;;
50291;SDS011;36190;54.980;73.388;2023-12-14T08:37:18;0.20;;;0.20;;
50291;SDS011;36190;54.980;73.388;2023-12-14T08:39:46;0.20;;;0.20;;
50291;SDS011;36190;54.980;73.388;2023-12-14T08:42:13;0.20;;;0.20;;
50291;SDS011;36190;54.980;73.388;2023-12-14T08:44:42;0.20;;;0.20;;
50291;SDS011;36190;54.980;73.388;2023-12-14T08:47:10;0.20;;;0.20;;
50291;SDS011;36190;54.980;73.388;2023-12-14T08:49:38;0.10;;;0.10;;
50291;SDS011;36190;54.980;73.388;2023-12-14T08:52:05;0.20;;;0.20;;
50291;SDS011;36190;54.980;73.388;2023-12-14T08:54:34;0.20;;;0.20;;
50291;SDS011;36190;54.980;73.388;2023-12-14T08:57:01;0.10;;;0.10;;
50291;SDS011;36190;54.980;73.388;2023-12-14T08:59:30;0.10;;;0.10;;
50291;SDS011;36190;54.980;73.388;2023-12-14T09:01:59;0.10;;;0.10;;
50291;SDS011;36190;54.980;73.388;2023-12-14T09:04:27;0.10;;;0.10;;
50291;SDS011;36190;54.980;73.388;2023-12-14T09:06:54;0.20;;;0.20;;
50291;SDS011;36190;54.980;73.388;2023-12-14T09:09:22;0.20;;;0.20;;
50291;SDS011;36190;54.980;73.388;2023-12-14T09:11:50;0.20;;;0.20;;
50291;SDS011;36190;54.980;73.388;2023-12-14T09:14:17;0.20;;;0.20;;
50291;SDS011;36190;54.980;73.388;2023-12-14T09:16:45;0.17;;;0.17;;
50291;SDS011;36190;54.980;73.388;2023-12-14T09:19:15;0.10;;;0.10;;
50291;SDS011;36190;54.980;73.388;2023-12-14T09:21:44;0.13;;;0.13;;
50291;SDS011;36190;54.980;73.388;2023-12-14T09:24:11;0.10;;;0.10;;
50291;SDS011;36190;54.980;73.388;2023-12-14T09:26:39;0.13;;;0.13;;
50291;SDS011;36190;54.980;73.388;2023-12-14T09:29:07;0.10;;;0.10;;
50291;SDS011;36190;54.980;73.388;2023-12-14T09:31:35;0.20;;;0.20;;
50291;SDS011;36190;54.980;73.388;2023-12-14T09:34:02;0.20;;;0.20;;
50291;SDS011;36190;54.980;73.388;2023-12-14T09:36:32;0.20;;;0.20;;
50291;SDS011;36190;54.980;73.388;2023-12-14T09:38:59;0.20;;;0.20;;
50291;SDS011;36190;54.980;73.388;2023-12-14T09:41:28;0.10;;;0.10;;
50291;SDS011;36190;54.980;73.388;2023-12-14T09:43:56;0.20;;;0.20;;
50291;SDS011;36190;54.980;73.388;2023-12-14T09:46:24;0.13;;;0.13;;
50291;SDS011;36190;54.980;73.388;2023-12-14T09:48:54;0.17;;;0.17;;
50291;SDS011;36190;54.980;73.388;2023-12-14T09:51:22;0.20;;;0.20;;
50291;SDS011;36190;54.980;73.388;2023-12-14T09:53:53;0.30;;;0.30;;
50291;SDS011;36190;54.980;73.388;2023-12-14T09:56:23;0.50;;;0.40;;
50291;SDS011;36190;54.980;73.388;2023-12-14T09:58:51;0.20;;;0.20;;
50291;SDS011;36190;54.980;73.388;2023-12-14T10:01:22;0.20;;;0.20;;
50291;SDS011;36190;54.980;73.388;2023-12-14T10:03:50;0.40;;;0.40;;
50291;SDS011;36190;54.980;73.388;2023-12-14T10:06:35;0.40;;;0.40;;
50291;SDS011;36190;54.980;73.388;2023-12-14T10:09:04;0.20;;;0.20;;
50291;SDS011;36190;54.980;73.388;2023-12-14T10:11:34;0.20;;;0.20;;
50291;SDS011;36190;54.980;73.388;2023-12-14T10:14:03;0.20;;;0.20;;
50291;SDS011;36190;54.980;73.388;2023-12-14T10:16:47;0.17;;;0.17;;
50291;SDS011;36190;54.980;73.388;2023-12-14T10:19:16;0.30;;;0.30;;
50291;SDS011;36190;54.980;73.388;2023-12-14T10:21:45;0.20;;;0.20;;
50291;SDS011;36190;54.980;73.388;2023-12-14T10:24:15;0.20;;;0.20;;
50291;SDS011;36190;54.980;73.388;2023-12-14T10:26:44;0.30;;;0.30;;
50291;SDS011;36190;54.980;73.388;2023-12-14T10:29:12;0.20;;;0.20;;
50291;SDS011;36190;54.980;73.388;2023-12-14T10:31:40;0.20;;;0.20;;
50291;SDS011;36190;54.980;73.388;2023-12-14T10:34:09;0.20;;;0.20;;
50291;SDS011;36190;54.980;73.388;2023-12-14T10:36:38;0.20;;;0.20;;
50291;SDS011;36190;54.980;73.388;2023-12-14T10:39:06;0.30;;;0.30;;
50291;SDS011;36190;54.980;73.388;2023-12-14T10:41:42;0.20;;;0.20;;
50291;SDS011;36190;54.980;73.388;2023-12-14T10:44:12;0.33;;;0.33;;
50291;SDS011;36190;54.980;73.388;2023-12-14T10:46:40;0.23;;;0.23;;
50291;SDS011;36190;54.980;73.388;2023-12-14T10:49:09;0.30;;;0.30;;
50291;SDS011;36190;54.980;73.388;2023-12-14T10:51:37;0.40;;;0.40;;
50291;SDS011;36190;54.980;73.388;2023-12-14T10:54:08;0.20;;;0.20;;
50291;SDS011;36190;54.980;73.388;2023-12-14T10:56:36;0.30;;;0.30;;
50291;SDS011;36190;54.980;73.388;2023-12-14T10:59:05;0.20;;;0.20;;
50291;SDS011;36190;54.980;73.388;2023-12-14T11:01:33;0.27;;;0.27;;
50291;SDS011;36190;54.980;73.388;2023-12-14T11:04:05;0.20;;;0.20;;
50291;SDS011;36190;54.980;73.388;2023-12-14T11:06:38;0.30;;;0.30;;
50291;SDS011;36190;54.980;73.388;2023-12-14T11:09:13;0.33;;;0.33;;
50291;SDS011;36190;54.980;73.388;2023-12-14T11:11:47;0.20;;;0.20;;
50291;SDS011;36190;54.980;73.388;2023-12-14T11:14:24;0.13;;;0.13;;
50291;SDS011;36190;54.980;73.388;2023-12-14T11:16:54;0.30;;;0.30;;
50291;SDS011;36190;54.980;73.388;2023-12-14T11:19:29;0.30;;;0.30;;
50291;SDS011;36190;54.980;73.388;2023-12-14T11:22:10;0.30;;;0.30;;
50291;SDS011;36190;54.980;73.388;2023-12-14T11:24:50;0.20;;;0.20;;
50291;SDS011;36190;54.980;73.388;2023-12-14T11:27:20;0.60;;;0.60;;
50291;SDS011;36190;54.980;73.388;2023-12-14T11:29:59;0.40;;;0.40;;
50291;SDS011;36190;54.980;73.388;2023-12-14T11:32:29;0.40;;;0.40;;
50291;SDS011;36190;54.980;73.388;2023-12-14T11:34:56;0.30;;;0.30;;
50291;SDS011;36190;54.980;73.388;2023-12-14T11:37:24;0.30;;;0.30;;
50291;SDS011;36190;54.980;73.388;2023-12-14T11:39:53;0.30;;;0.30;;
50291;SDS011;36190;54.980;73.388;2023-12-14T11:42:21;0.30;;;0.30;;
50291;SDS011;36190;54.980;73.388;2023-12-14T11:44:48;0.20;;;0.20;;
50291;SDS011;36190;54.980;73.388;2023-12-14T11:47:17;0.40;;;0.40;;
50291;SDS011;36190;54.980;73.388;2023-12-14T11:49:45;0.30;;;0.30;;
50291;SDS011;36190;54.980;73.388;2023-12-14T11:52:13;0.20;;;0.20;;
50291;SDS011;36190;54.980;73.388;2023-12-14T11:54:42;0.60;;;0.60;;
50291;SDS011;36190;54.980;73.388;2023-12-14T11:57:09;0.30;;;0.30;;
50291;SDS011;36190;54.980;73.388;2023-12-14T11:59:37;0.30;;;0.30;;
50291;SDS011;36190;54.980;73.388;2023-12-14T12:02:05;0.47;;;0.40;;
50291;SDS011;36190;54.980;73.388;2023-12-14T12:04:34;0.33;;;0.33;;
50291;SDS011;36190;54.980;73.388;2023-12-14T12:07:03;0.30;;;0.30;;
50291;SDS011;36190;54.980;73.388;2023-12-14T12:09:35;0.30;;;0.30;;
50291;SDS011;36190;54.980;73.388;2023-12-14T12:12:07;0.60;;;0.60;;
50291;SDS011;36190;54.980;73.388;2023-12-14T12:14:36;0.47;;;0.47;;
50291;SDS011;36190;54.980;73.388;2023-12-14T12:17:04;0.40;;;0.40;;
50291;SDS011;36190;54.980;73.388;2023-12-14T12:19:33;0.40;;;0.40;;
50291;SDS011;36190;54.980;73.388;2023-12-14T12:22:03;0.40;;;0.40;;
50291;SDS011;36190;54.980;73.388;2023-12-14T12:24:31;0.27;;;0.27;;
50291;SDS011;36190;54.980;73.388;2023-12-14T12:26:58;0.40;;;0.40;;
50291;SDS011;36190;54.980;73.388;2023-12-14T12:29:26;0.40;;;0.40;;
50291;SDS011;36190;54.980;73.388;2023-12-14T12:31:54;0.30;;;0.30;;
50291;SDS011;36190;54.980;73.388;2023-12-14T12:34:21;0.40;;;0.40;;
50291;SDS011;36190;54.980;73.388;2023-12-14T12:36:51;0.50;;;0.50;;
50291;SDS011;36190;54.980;73.388;2023-12-14T12:39:19;0.43;;;0.43;;
50291;SDS011;36190;54.980;73.388;2023-12-14T12:41:47;0.30;;;0.30;;
50291;SDS011;36190;54.980;73.388;2023-12-14T12:44:14;0.40;;;0.40;;
50291;SDS011;36190;54.980;73.388;2023-12-14T12:46:42;0.50;;;0.50;;
50291;SDS011;36190;54.980;73.388;2023-12-14T12:49:10;0.43;;;0.43;;
50291;SDS011;36190;54.980;73.388;2023-12-14T12:51:38;0.40;;;0.40;;
50291;SDS011;36190;54.980;73.388;2023-12-14T12:54:07;0.40;;;0.40;;
50291;SDS011;36190;54.980;73.388;2023-12-14T12:56:34;0.57;;;0.53;;
50291;SDS011;36190;54.980;73.388;2023-12-14T12:59:02;0.40;;;0.40;;
50291;SDS011;36190;54.980;73.388;2023-12-14T13:01:30;0.30;;;0.30;;
50291;SDS011;36190;54.980;73.388;2023-12-14T13:03:57;0.37;;;0.37;;
50291;SDS011;36190;54.980;73.388;2023-12-14T13:06:26;0.40;;;0.40;;
50291;SDS011;36190;54.980;73.388;2023-12-14T13:08:54;0.30;;;0.30;;
50291;SDS011;36190;54.980;73.388;2023-12-14T13:11:23;0.50;;;0.50;;
50291;SDS011;36190;54.980;73.388;2023-12-14T13:13:51;0.37;;;0.37;;
50291;SDS011;36190;54.980;73.388;2023-12-14T13:16:18;0.50;;;0.50;;
50291;SDS011;36190;54.980;73.388;2023-12-14T13:18:46;0.60;;;0.60;;
50291;SDS011;36190;54.980;73.388;2023-12-14T13:21:14;0.50;;;0.50;;
50291;SDS011;36190;54.980;73.388;2023-12-14T13:23:41;0.70;;;0.70;;
50291;SDS011;36190;54.980;73.388;2023-12-14T13:26:09;0.67;;;0.67;;
50291;SDS011;36190;54.980;73.388;2023-12-14T13:28:38;0.50;;;0.50;;
50291;SDS011;36190;54.980;73.388;2023-12-14T13:31:06;0.50;;;0.50;;
50291;SDS011;36190;54.980;73.388;2023-12-14T13:33:34;0.50;;;0.50;;
50291;SDS011;36190;54.980;73.388;2023-12-14T13:36:01;0.40;;;0.40;;
50291;SDS011;36190;54.980;73.388;2023-12-14T13:38:29;0.50;;;0.50;;
50291;SDS011;36190;54.980;73.388;2023-12-14T13:40:59;0.60;;;0.60;;
50291;SDS011;36190;54.980;73.388;2023-12-14T13:43:25;0.40;;;0.40;;
50291;SDS011;36190;54.980;73.388;2023-12-14T13:45:54;0.50;;;0.50;;
50291;SDS011;36190;54.980;73.388;2023-12-14T13:48:23;0.40;;;0.40;;
50291;SDS011;36190;54.980;73.388;2023-12-14T13:50:51;0.60;;;0.60;;
50291;SDS011;36190;54.980;73.388;2023-12-14T13:53:20;0.40;;;0.40;;
50291;SDS011;36190;54.980;73.388;2023-12-14T13:55:48;0.40;;;0.40;;
50291;SDS011;36190;54.980;73.388;2023-12-14T13:58:17;0.50;;;0.50;;
50291;SDS011;36190;54.980;73.388;2023-12-14T14:00:44;0.30;;;0.30;;
50291;SDS011;36190;54.980;73.388;2023-12-14T14:03:14;0.50;;;0.50;;
50291;SDS011;36190;54.980;73.388;2023-12-14T14:05:41;0.53;;;0.53;;
50291;SDS011;36190;54.980;73.388;2023-12-14T14:08:09;0.87;;;0.87;;
50291;SDS011;36190;54.980;73.388;2023-12-14T14:10:37;0.50;;;0.50;;
50291;SDS011;36190;54.980;73.388;2023-12-14T14:13:05;0.50;;;0.50;;
50291;SDS011;36190;54.980;73.388;2023-12-14T14:15:32;0.50;;;0.50;;
50291;SDS011;36190;54.980;73.388;2023-12-14T14:18:00;0.60;;;0.60;;
50291;SDS011;36190;54.980;73.388;2023-12-14T14:20:29;0.50;;;0.50;;
50291;SDS011;36190;54.980;73.388;2023-12-14T14:22:57;0.60;;;0.60;;
50291;SDS011;36190;54.980;73.388;2023-12-14T14:25:25;0.60;;;0.60;;
50291;SDS011;36190;54.980;73.388;2023-12-14T14:27:53;0.33;;;0.33;;
50291;SDS011;36190;54.980;73.388;2023-12-14T14:30:21;0.50;;;0.50;;
50291;SDS011;36190;54.980;73.388;2023-12-14T14:32:49;0.40;;;0.40;;
50291;SDS011;36190;54.980;73.388;2023-12-14T14:35:16;0.50;;;0.50;;
50291;SDS011;36190;54.980;73.388;2023-12-14T14:37:46;0.63;;;0.63;;
50291;SDS011;36190;54.980;73.388;2023-12-14T14:40:15;0.40;;;0.40;;